sensor_id;sensor_type;location;lat;lon;timestamp;pressure;altitude;pressure_sealevel;temperature;humidity
39275;BME280;24980;48.874;2.332;2023-08-20T19:17:47;101677.21;;;30.45;48.84
39275;BME280;24980;48.874;2.332;2023-08-20T19:20:16;101682.66;;;30.48;49.01
39275;BME280;24980;48.874;2.332;2023-08-20T19:22:46;101684.39;;;30.53;49.27
39275;BME280;24980;48.874;2.332;2023-08-20T19:25:17;101687.45;;;30.57;49.53
39275;BME280;24980;48.874;2.332;2023-08-20T19:27:48;101697.80;;;30.63;49.82
39275;BME280;24980;48.874;2.332;2023-08-20T19:30:22;101705.67;;;30.67;50.09
39275;BME280;24980;48.874;2.332;2023-08-20T19:32:48;101713.59;;;30.70;50.32
39275;BME280;24980;48.874;2.332;2023-08-20T19:35:18;101720.20;;;30.73;50.52
39275;BME280;24980;48.874;2.332;2023-08-20T19:37:48;101721.25;;;30.74;50.71
39275;BME280;24980;48.874;2.332;2023-08-20T19:40:23;101725.05;;;30.78;50.88
39275;BME280;24980;48.874;2.332;2023-08-20T19:42:53;101732.97;;;30.81;51.00
39275;BME280;24980;48.874;2.332;2023-08-20T19:45:20;101741.94;;;30.82;51.10
39275;BME280;24980;48.874;2.332;2023-08-20T19:47:51;101747.42;;;30.82;51.18
39275;BME280;24980;48.874;2.332;2023-08-20T19:50:31;101755.58;;;30.81;51.26
39275;BME280;24980;48.874;2.332;2023-08-20T19:52:53;101760.25;;;30.82;51.34
39275;BME280;24980;48.874;2.332;2023-08-20T19:55:22;101763.38;;;30.82;51.41
39275;BME280;24980;48.874;2.332;2023-08-20T19:57:55;101766.38;;;30.83;51.51
39275;BME280;24980;48.874;2.332;2023-08-20T20:00:25;101771.21;;;30.82;51.58
39275;BME280;24980;48.874;2.332;2023-08-20T20:02:57;101774.33;;;30.83;51.63
39275;BME280;24980;48.874;2.332;2023-08-20T20:05:25;101773.73;;;30.83;51.64
39275;BME280;24980;48.874;2.332;2023-08-20T20:07:58;101773.66;;;30.82;51.65
39275;BME280;24980;48.874;2.332;2023-08-20T20:10:30;101777.92;;;30.83;51.62
39275;BME280;24980;48.874;2.332;2023-08-20T20:12:55;101779.34;;;30.82;51.62
39275;BME280;24980;48.874;2.332;2023-08-20T20:15:26;101785.62;;;30.81;51.64
39275;BME280;24980;48.874;2.332;2023-08-20T20:20:27;101794.57;;;30.79;51.60
39275;BME280;24980;48.874;2.332;2023-08-20T20:22:58;101796.84;;;30.79;51.57
39275;BME280;24980;48.874;2.332;2023-08-20T20:25:27;101796.80;;;30.77;51.53
39275;BME280;24980;48.874;2.332;2023-08-20T20:27:58;101799.45;;;30.75;51.46
39275;BME280;24980;48.874;2.332;2023-08-20T20:30:28;101805.48;;;30.73;51.38
39275;BME280;24980;48.874;2.332;2023-08-20T20:32:59;101805.12;;;30.72;51.31
39275;BME280;24980;48.874;2.332;2023-08-20T20:35:30;101801.83;;;30.70;51.26
39275;BME280;24980;48.874;2.332;2023-08-20T20:37:59;101800.11;;;30.70;51.20
39275;BME280;24980;48.874;2.332;2023-08-20T20:40:29;101805.27;;;30.70;51.16
39275;BME280;24980;48.874;2.332;2023-08-20T20:42:59;101803.28;;;30.68;51.12
39275;BME280;24980;48.874;2.332;2023-08-20T20:45:29;101801.08;;;30.67;51.08
39275;BME280;24980;48.874;2.332;2023-08-20T20:47:59;101802.55;;;30.67;51.02
39275;BME280;24980;48.874;2.332;2023-08-20T20:50:33;101804.05;;;30.66;50.92
39275;BME280;24980;48.874;2.332;2023-08-20T20:53:00;101809.55;;;30.65;50.85
39275;BME280;24980;48.874;2.332;2023-08-20T20:55:31;101809.12;;;30.65;50.80
39275;BME280;24980;48.874;2.332;2023-08-20T20:58:04;101804.59;;;30.65;50.74
39275;BME280;24980;48.874;2.332;2023-08-20T21:00:37;101808.11;;;30.65;50.66
39275;BME280;24980;48.874;2.332;2023-08-20T21:03:06;101813.77;;;30.64;50.61
39275;BME280;24980;48.874;2.332;2023-08-20T21:05:31;101810.08;;;30.63;50.57
39275;BME280;24980;48.874;2.332;2023-08-20T21:08:06;101809.78;;;30.61;50.54
39275;BME280;24980;48.874;2.332;2023-08-20T21:10:32;101816.17;;;30.60;50.52
39275;BME280;24980;48.874;2.332;2023-08-20T21:13:04;101819.86;;;30.59;50.52
39275;BME280;24980;48.874;2.332;2023-08-20T21:15:35;101824.34;;;30.60;50.53
39275;BME280;24980;48.874;2.332;2023-08-20T21:18:03;101829.52;;;30.62;50.51
39275;BME280;24980;48.874;2.332;2023-08-20T21:20:33;101831.39;;;30.65;50.50
39275;BME280;24980;48.874;2.332;2023-08-20T21:23:04;101835.22;;;30.65;50.47
39275;BME280;24980;48.874;2.332;2023-08-20T21:25:34;101827.77;;;30.66;50.41
39275;BME280;24980;48.874;2.332;2023-08-20T21:28:07;101832.48;;;30.65;50.36
39275;BME280;24980;48.874;2.332;2023-08-20T21:30:35;101828.40;;;30.64;50.32
39275;BME280;24980;48.874;2.332;2023-08-20T21:33:05;101834.28;;;30.65;50.28
39275;BME280;24980;48.874;2.332;2023-08-20T21:35:36;101833.08;;;30.66;50.25
39275;BME280;24980;48.874;2.332;2023-08-20T21:38:09;101834.97;;;30.65;50.23
39275;BME280;24980;48.874;2.332;2023-08-20T21:40:37;101837.45;;;30.65;50.19
39275;BME280;24980;48.874;2.332;2023-08-20T21:43:07;101842.75;;;30.65;50.15
39275;BME280;24980;48.874;2.332;2023-08-20T21:45:37;101842.39;;;30.66;50.14
39275;BME280;24980;48.874;2.332;2023-08-20T21:48:07;101845.77;;;30.67;50.10
39275;BME280;24980;48.874;2.332;2023-08-20T21:50:37;101842.31;;;30.66;50.08
39275;BME280;24980;48.874;2.332;2023-08-20T21:53:13;101838.03;;;30.66;50.06
39275;BME280;24980;48.874;2.332;2023-08-20T21:55:52;101837.97;;;30.67;50.04
39275;BME280;24980;48.874;2.332;2023-08-20T21:58:09;101841.45;;;30.66;50.01
39275;BME280;24980;48.874;2.332;2023-08-20T22:00:40;101837.34;;;30.66;50.03
39275;BME280;24980;48.874;2.332;2023-08-20T22:03:10;101841.90;;;30.65;50.06
39275;BME280;24980;48.874;2.332;2023-08-20T22:05:43;101841.20;;;30.66;50.08
39275;BME280;24980;48.874;2.332;2023-08-20T22:08:11;101843.21;;;30.64;50.10
39275;BME280;24980;48.874;2.332;2023-08-20T22:10:48;101848.62;;;30.61;50.13
39275;BME280;24980;48.874;2.332;2023-08-20T22:13:17;101849.84;;;30.60;50.12
39275;BME280;24980;48.874;2.332;2023-08-20T22:15:42;101853.58;;;30.59;50.12
39275;BME280;24980;48.874;2.332;2023-08-20T22:18:12;101858.48;;;30.58;50.14
39275;BME280;24980;48.874;2.332;2023-08-20T22:20:48;101851.99;;;30.57;50.13
39275;BME280;24980;48.874;2.332;2023-08-20T22:23:13;101849.86;;;30.57;50.08
39275;BME280;24980;48.874;2.332;2023-08-20T22:25:44;101858.38;;;30.56;50.02
39275;BME280;24980;48.874;2.332;2023-08-20T22:28:14;101855.31;;;30.56;49.97
39275;BME280;24980;48.874;2.332;2023-08-20T22:30:45;101859.67;;;30.56;49.90
39275;BME280;24980;48.874;2.332;2023-08-20T22:33:16;101858.33;;;30.55;49.83
39275;BME280;24980;48.874;2.332;2023-08-20T22:35:49;101860.33;;;30.54;49.75
39275;BME280;24980;48.874;2.332;2023-08-20T22:38:22;101863.88;;;30.53;49.70
39275;BME280;24980;48.874;2.332;2023-08-20T22:40:46;101864.42;;;30.52;49.63
39275;BME280;24980;48.874;2.332;2023-08-20T22:43:21;101865.45;;;30.52;49.55
39275;BME280;24980;48.874;2.332;2023-08-20T22:45:46;101864.45;;;30.51;49.50
39275;BME280;24980;48.874;2.332;2023-08-20T22:48:17;101863.77;;;30.51;49.49
39275;BME280;24980;48.874;2.332;2023-08-20T22:50:49;101862.62;;;30.50;49.49
39275;BME280;24980;48.874;2.332;2023-08-20T22:53:18;101860.58;;;30.50;49.49
39275;BME280;24980;48.874;2.332;2023-08-20T22:55:52;101866.76;;;30.49;49.46
39275;BME280;24980;48.874;2.332;2023-08-20T22:58:28;101869.18;;;30.48;49.46
39275;BME280;24980;48.874;2.332;2023-08-20T23:00:53;101873.55;;;30.47;49.42
39275;BME280;24980;48.874;2.332;2023-08-20T23:03:20;101869.34;;;30.48;49.40
39275;BME280;24980;48.874;2.332;2023-08-20T23:05:51;101865.26;;;30.47;49.35
39275;BME280;24980;48.874;2.332;2023-08-20T23:08:21;101869.48;;;30.47;49.32
39275;BME280;24980;48.874;2.332;2023-08-20T23:10:55;101873.52;;;30.46;49.28
39275;BME280;24980;48.874;2.332;2023-08-20T23:15:58;101871.58;;;30.45;49.20
39275;BME280;24980;48.874;2.332;2023-08-20T23:18:23;101868.08;;;30.45;49.17
39275;BME280;24980;48.874;2.332;2023-08-20T23:21:01;101867.36;;;30.44;49.14
39275;BME280;24980;48.874;2.332;2023-08-20T23:23:23;101865.75;;;30.43;49.13
39275;BME280;24980;48.874;2.332;2023-08-20T23:25:53;101862.96;;;30.42;49.10
39275;BME280;24980;48.874;2.332;2023-08-20T23:28:23;101865.89;;;30.41;49.07
39275;BME280;24980;48.874;2.332;2023-08-20T23:30:53;101863.97;;;30.39;49.05
39275;BME280;24980;48.874;2.332;2023-08-20T23:33:24;101858.95;;;30.38;49.02
39275;BME280;24980;48.874;2.332;2023-08-20T23:35:54;101864.91;;;30.37;48.99
39275;BME280;24980;48.874;2.332;2023-08-20T23:38:26;101862.95;;;30.36;48.95
39275;BME280;24980;48.874;2.332;2023-08-20T23:40:55;101867.50;;;30.36;48.89
39275;BME280;24980;48.874;2.332;2023-08-20T23:43:25;101862.98;;;30.35;48.83
39275;BME280;24980;48.874;2.332;2023-08-20T23:45:55;101860.72;;;30.34;48.78
39275;BME280;24980;48.874;2.332;2023-08-20T23:48:29;101860.17;;;30.32;48.73
39275;BME280;24980;48.874;2.332;2023-08-20T23:51:00;101859.72;;;30.31;48.68
39275;BME280;24980;48.874;2.332;2023-08-20T23:53:27;101865.65;;;30.29;48.65
39275;BME280;24980;48.874;2.332;2023-08-20T23:56:02;101864.66;;;30.28;48.61
39275;BME280;24980;48.874;2.332;2023-08-20T23:58:35;101869.16;;;30.27;48.57
